Time,TemperatureF,DewpointF,PressureIn,WindDirection,WindDirectionDegrees,WindSpeedMPH,WindSpeedGustMPH,Humidity,HourlyPrecipIn,Conditions,Clouds,dailyrainin,SoftwareType,DateUTC
2013-01-26 00:03:00,11.0,-6.0,-100.00,North,350,3.0,4.0,44,0.00,,,-99.99,,2013-01-26 05:03:00,
2013-01-26 00:12:00,11.0,-6.0,-100.00,North,350,3.0,6.0,45,0.00,,,-99.99,,2013-01-26 05:12:00,
2013-01-26 00:23:00,11.0,-5.0,-100.00,NNW,345,3.0,5.0,48,0.00,,,-99.99,,2013-01-26 05:23:00,
2013-01-26 00:33:00,11.0,-4.0,-100.00,NNW,345,3.0,8.0,51,0.00,,,-99.99,,2013-01-26 05:33:00,
2013-01-26 00:41:00,11.0,-3.0,-100.00,NNW,330,3.0,7.0,54,0.00,,,-99.99,,2013-01-26 05:41:00,
2013-01-26 01:03:00,10.0,0.0,-100.00,NNW,340,3.0,6.0,64,0.01,,,-99.99,,2013-01-26 06:03:00,
2013-01-26 01:12:00,10.0,2.0,-100.00,NNW,335,4.0,6.0,68,0.01,,,-99.99,,2013-01-26 06:12:00,
2013-01-26 01:21:00,10.0,2.0,-100.00,NNW,340,4.0,6.0,70,0.00,,,-99.99,,2013-01-26 06:21:00,
2013-01-26 01:32:00,10.0,2.0,-100.00,NNW,335,3.0,6.0,70,0.00,,,-99.99,,2013-01-26 06:32:00,
2013-01-26 01:42:00,10.0,2.0,-100.00,NW,315,3.0,6.0,70,0.00,,,-99.99,,2013-01-26 06:42:00,
2013-01-26 01:52:00,9.0,2.0,-100.00,NNW,330,2.0,5.0,71,0.00,,,-99.99,,2013-01-26 06:52:00,
2013-01-26 02:02:00,9.0,2.0,-100.00,NW,320,3.0,6.0,71,0.00,,,-99.99,,2013-01-26 07:02:00,
2013-01-26 02:12:00,9.0,2.0,-100.00,NW,320,3.0,6.0,71,0.00,,,-99.99,,2013-01-26 07:12:00,
2013-01-26 02:21:00,9.0,2.0,-100.00,NNW,345,3.0,6.0,71,0.00,,,-99.99,,2013-01-26 07:21:00,
2013-01-26 02:33:00,9.0,2.0,-100.00,NNW,335,3.0,6.0,71,0.00,,,-99.99,,2013-01-26 07:33:00,
2013-01-26 02:41:00,9.0,2.0,-100.00,NNW,330,3.0,6.0,71,0.00,,,-99.99,,2013-01-26 07:41:00,
2013-01-26 02:52:00,9.0,2.0,-100.00,NNW,340,4.0,6.0,72,0.00,,,-99.99,,2013-01-26 07:52:00,
2013-01-26 03:02:00,9.0,2.0,-100.00,NNW,340,3.0,6.0,72,0.00,,,-99.99,,2013-01-26 08:02:00,
2013-01-26 03:11:00,9.0,2.0,-100.00,NNW,335,3.0,6.0,72,0.00,,,-99.99,,2013-01-26 08:11:00,
2013-01-26 03:21:00,9.0,1.0,-100.00,NW,325,2.0,6.0,71,0.00,,,-99.99,,2013-01-26 08:21:00,
2013-01-26 03:32:00,8.0,1.0,-100.00,NW,325,1.0,4.0,72,0.00,,,-99.99,,2013-01-26 08:32:00,
2013-01-26 03:42:00,8.0,1.0,-100.00,NW,315,2.0,3.0,72,0.00,,,-99.99,,2013-01-26 08:42:00,
2013-01-26 03:53:00,8.0,1.0,-100.00,NW,315,1.0,4.0,73,0.00,,,-99.99,,2013-01-26 08:53:00,
2013-01-26 04:02:00,8.0,1.0,-100.00,NW,315,2.0,5.0,73,0.00,,,-99.99,,2013-01-26 09:02:00,
2013-01-26 04:11:00,7.0,1.0,-100.00,NNW,340,2.0,4.0,73,0.00,,,-99.99,,2013-01-26 09:11:00,
2013-01-26 04:22:00,7.0,0.0,-100.00,NW,320,2.0,4.0,73,0.00,,,-99.99,,2013-01-26 09:22:00,
2013-01-26 04:32:00,6.0,0.0,-100.00,NNW,340,3.0,5.0,74,0.00,,,-99.99,,2013-01-26 09:32:00,
2013-01-26 04:42:00,6.0,0.0,-100.00,NNW,340,3.0,6.0,74,0.00,,,-99.99,,2013-01-26 09:42:00,
2013-01-26 04:51:00,6.0,0.0,-100.00,NW,315,2.0,4.0,74,0.00,,,-99.99,,2013-01-26 09:51:00,
2013-01-26 05:01:00,6.0,0.0,-100.00,West,280,1.0,4.0,74,0.00,,,-99.99,,2013-01-26 10:01:00,
2013-01-26 05:12:00,6.0,-1.0,-100.00,NNW,340,2.0,4.0,73,0.00,,,-99.99,,2013-01-26 10:12:00,
2013-01-26 05:21:00,5.0,-2.0,-100.00,NNW,340,3.0,4.0,71,0.00,,,-99.99,,2013-01-26 10:21:00,
2013-01-26 05:32:00,5.0,-2.0,-100.00,NW,315,1.0,5.0,70,0.00,,,-99.99,,2013-01-26 10:32:00,
2013-01-26 05:42:00,5.0,-3.0,-100.00,NNW,335,2.0,6.0,68,0.00,,,-99.99,,2013-01-26 10:42:00,
2013-01-26 05:52:00,5.0,-3.0,-100.00,NNW,345,3.0,5.0,67,0.00,,,-99.99,,2013-01-26 10:52:00,
2013-01-26 06:01:00,5.0,-3.0,-100.00,NNW,340,1.0,6.0,67,0.00,,,-99.99,,2013-01-26 11:01:00,
2013-01-26 06:12:00,5.0,-4.0,-100.00,NNW,345,4.0,6.0,65,0.00,,,-99.99,,2013-01-26 11:12:00,
2013-01-26 06:22:00,5.0,-4.0,-100.00,NNW,345,4.0,6.0,65,0.00,,,-99.99,,2013-01-26 11:22:00,
2013-01-26 06:32:00,5.0,-5.0,-100.00,NNW,345,4.0,7.0,63,0.00,,,-99.99,,2013-01-26 11:32:00,
2013-01-26 06:42:00,5.0,-4.0,-100.00,NNW,345,5.0,7.0,64,0.00,,,-99.99,,2013-01-26 11:42:00,
2013-01-26 06:52:00,6.0,-5.0,-100.00,NNW,340,6.0,8.0,62,0.00,,,-99.99,,2013-01-26 11:52:00,
2013-01-26 07:02:00,6.0,-5.0,-100.00,NNW,335,4.0,9.0,62,0.00,,,-99.99,,2013-01-26 12:02:00,
2013-01-26 07:12:00,5.0,-4.0,-100.00,NNW,345,7.0,9.0,63,0.00,,,-99.99,,2013-01-26 12:12:00,
2013-01-26 07:22:00,5.0,-4.0,-100.00,NNW,330,5.0,9.0,64,0.00,,,-99.99,,2013-01-26 12:22:00,
2013-01-26 07:33:00,6.0,-4.0,-100.00,NNW,345,9.0,12.0,63,0.00,,,-99.99,,2013-01-26 12:33:00,
2013-01-26 07:42:00,6.0,-4.0,-100.00,NNW,340,7.0,12.0,63,0.00,,,-99.99,,2013-01-26 12:42:00,
2013-01-26 07:52:00,6.0,-4.0,-100.00,NNW,340,6.0,11.0,64,0.00,,,-99.99,,2013-01-26 12:52:00,
2013-01-26 08:03:00,6.0,-4.0,-100.00,NNW,345,6.0,10.0,64,0.00,,,-99.99,,2013-01-26 13:03:00,
2013-01-26 08:12:00,6.0,-3.0,-100.00,NNW,340,7.0,11.0,63,0.00,,,-99.99,,2013-01-26 13:12:00,
2013-01-26 08:22:00,6.0,-4.0,-100.00,NNW,335,6.0,9.0,62,0.00,,,-99.99,,2013-01-26 13:22:00,
2013-01-26 08:33:00,7.0,-4.0,-100.00,NNW,335,7.0,16.0,61,0.00,,,-99.99,,2013-01-26 13:33:00,
2013-01-26 08:42:00,7.0,-4.0,-100.00,NNW,340,6.0,13.0,60,0.00,,,-99.99,,2013-01-26 13:42:00,
2013-01-26 08:52:00,8.0,-3.0,-100.00,NNW,340,9.0,16.0,59,0.00,,,-99.99,,2013-01-26 13:52:00,
2013-01-26 09:03:00,8.0,-3.0,-100.00,NNW,330,9.0,14.0,59,0.00,,,-99.99,,2013-01-26 14:03:00,
2013-01-26 09:12:00,8.0,-3.0,-100.00,NNW,345,9.0,13.0,58,0.00,,,-99.99,,2013-01-26 14:12:00,
2013-01-26 09:22:00,9.0,-3.0,-100.00,NNW,340,8.0,12.0,57,0.00,,,-99.99,,2013-01-26 14:22:00,
2013-01-26 09:32:00,9.0,-3.0,-100.00,NNW,340,8.0,15.0,56,0.00,,,-99.99,,2013-01-26 14:32:00,
2013-01-26 09:43:00,10.0,-3.0,-100.00,NNW,345,8.0,14.0,54,0.00,,,-99.99,,2013-01-26 14:43:00,
2013-01-26 09:52:00,10.0,-3.0,-100.00,NNW,340,9.0,17.0,53,0.00,,,-99.99,,2013-01-26 14:52:00,
2013-01-26 10:03:00,10.0,-4.0,-100.00,NNW,345,7.0,11.0,51,0.00,,,-99.99,,2013-01-26 15:03:00,
2013-01-26 10:12:00,11.0,-5.0,-100.00,NNW,335,9.0,15.0,48,0.00,,,-99.99,,2013-01-26 15:12:00,
2013-01-26 10:22:00,11.0,-4.0,-100.00,NNW,335,9.0,16.0,48,0.00,,,-99.99,,2013-01-26 15:22:00,
2013-01-26 10:32:00,11.0,-7.0,-100.00,North,350,10.0,16.0,43,0.00,,,-99.99,,2013-01-26 15:32:00,
2013-01-26 10:43:00,12.0,-7.0,-100.00,North,350,7.0,16.0,42,0.00,,,-99.99,,2013-01-26 15:43:00,
2013-01-26 10:52:00,12.0,-6.0,-100.00,NNW,340,7.0,14.0,43,0.00,,,-99.99,,2013-01-26 15:52:00,
2013-01-26 11:02:00,12.0,-8.0,-100.00,NNW,335,6.0,17.0,40,0.00,,,-99.99,,2013-01-26 16:02:00,
2013-01-26 11:12:00,12.0,-9.0,-100.00,NNW,330,12.0,18.0,37,0.00,,,-99.99,,2013-01-26 16:12:00,
2013-01-26 11:22:00,12.0,-10.0,-100.00,NNW,335,10.0,16.0,36,0.00,,,-99.99,,2013-01-26 16:22:00,
2013-01-26 11:33:00,12.0,-10.0,-100.00,NNW,335,10.0,18.0,35,0.00,,,-99.99,,2013-01-26 16:33:00,
2013-01-26 11:42:00,13.0,-10.0,-100.00,North,355,5.0,16.0,34,0.00,,,-99.99,,2013-01-26 16:42:00,
2013-01-26 11:53:00,13.0,-9.0,-100.00,NW,315,5.0,10.0,35,0.00,,,-99.99,,2013-01-26 16:53:00,
2013-01-26 12:03:00,13.0,-10.0,-100.00,NNW,345,7.0,16.0,34,0.00,,,-99.99,,2013-01-26 17:03:00,
2013-01-26 12:13:00,13.0,-10.0,-100.00,NNW,345,7.0,16.0,34,0.00,,,-99.99,,2013-01-26 17:13:00,
2013-01-26 12:22:00,14.0,-10.0,-100.00,NNW,340,9.0,15.0,33,0.00,,,-99.99,,2013-01-26 17:22:00,
2013-01-26 12:33:00,14.0,-10.0,-100.00,NNW,345,7.0,14.0,33,0.00,,,-99.99,,2013-01-26 17:33:00,
2013-01-26 12:42:00,13.0,-11.0,-100.00,NNW,340,9.0,17.0,31,0.00,,,-99.99,,2013-01-26 17:42:00,
2013-01-26 12:53:00,13.0,-11.0,-100.00,NNW,345,7.0,15.0,32,0.00,,,-99.99,,2013-01-26 17:53:00,
2013-01-26 13:03:00,13.0,-12.0,-100.00,NNW,335,12.0,19.0,30,0.00,,,-99.99,,2013-01-26 18:03:00,
2013-01-26 13:12:00,13.0,-11.0,-100.00,NNW,340,11.0,21.0,32,0.00,,,-99.99,,2013-01-26 18:12:00,
2013-01-26 13:22:00,13.0,-12.0,-100.00,NNW,335,14.0,26.0,31,0.00,,,-99.99,,2013-01-26 18:22:00,
2013-01-26 13:33:00,13.0,-12.0,-100.00,NNW,340,11.0,22.0,30,0.00,,,-99.99,,2013-01-26 18:33:00,
2013-01-26 13:42:00,14.0,-12.0,-100.00,NNW,335,11.0,24.0,29,0.00,,,-99.99,,2013-01-26 18:42:00,
2013-01-26 13:52:00,14.0,-11.0,-100.00,NNW,335,9.0,21.0,30,0.00,,,-99.99,,2013-01-26 18:52:00,
2013-01-26 14:03:00,14.0,-11.0,-100.00,NNW,345,14.0,21.0,31,0.00,,,-99.99,,2013-01-26 19:03:00,
2013-01-26 14:12:00,14.0,-12.0,-100.00,NNW,340,16.0,22.0,29,0.00,,,-99.99,,2013-01-26 19:12:00,
2013-01-26 14:22:00,14.0,-12.0,-100.00,North,5,15.0,22.0,29,0.00,,,-99.99,,2013-01-26 19:22:00,
2013-01-26 14:32:00,14.0,-12.0,-100.00,NW,325,9.0,24.0,30,0.00,,,-99.99,,2013-01-26 19:32:00,
2013-01-26 14:42:00,14.0,-12.0,-100.00,NNW,335,10.0,18.0,29,0.00,,,-99.99,,2013-01-26 19:42:00,
2013-01-26 14:52:00,14.0,-12.0,-100.00,NNW,335,10.0,25.0,29,0.00,,,-99.99,,2013-01-26 19:52:00,
2013-01-26 15:02:00,14.0,-11.0,-100.00,NNW,340,7.0,27.0,31,0.00,,,-99.99,,2013-01-26 20:02:00,
2013-01-26 15:11:00,14.0,-12.0,-100.00,NNW,340,11.0,21.0,29,0.00,,,-99.99,,2013-01-26 20:11:00,
2013-01-26 15:22:00,14.0,-12.0,-100.00,NNW,330,10.0,18.0,30,0.00,,,-99.99,,2013-01-26 20:22:00,
2013-01-26 15:32:00,14.0,-12.0,-100.00,NNW,330,9.0,21.0,30,0.00,,,-99.99,,2013-01-26 20:32:00,
2013-01-26 15:42:00,14.0,-12.0,-100.00,NNW,340,11.0,21.0,29,0.00,,,-99.99,,2013-01-26 20:42:00,
2013-01-26 15:52:00,14.0,-12.0,-100.00,NNW,340,12.0,19.0,29,0.00,,,-99.99,,2013-01-26 20:52:00,
2013-01-26 16:02:00,14.0,-12.0,-100.00,NNW,335,10.0,21.0,30,0.00,,,-99.99,,2013-01-26 21:02:00,
2013-01-26 16:12:00,14.0,-13.0,-100.00,NNW,340,10.0,22.0,28,0.00,,,-99.99,,2013-01-26 21:12:00,
2013-01-26 16:22:00,14.0,-14.0,-100.00,NNW,335,11.0,22.0,27,0.00,,,-99.99,,2013-01-26 21:22:00,
2013-01-26 16:32:00,13.0,-13.0,-100.00,NNW,330,11.0,16.0,28,0.00,,,-99.99,,2013-01-26 21:32:00,
2013-01-26 16:42:00,13.0,-13.0,-100.00,NNW,340,9.0,20.0,28,0.00,,,-99.99,,2013-01-26 21:42:00,
2013-01-26 16:52:00,13.0,-13.0,-100.00,NNW,335,9.0,16.0,29,0.00,,,-99.99,,2013-01-26 21:52:00,
2013-01-26 17:01:00,13.0,-12.0,-100.00,NNW,345,9.0,14.0,30,0.00,,,-99.99,,2013-01-26 22:01:00,
2013-01-26 17:12:00,13.0,-12.0,-100.00,NNW,340,7.0,12.0,30,0.00,,,-99.99,,2013-01-26 22:12:00,
2013-01-26 17:22:00,13.0,-12.0,-100.00,NNW,330,7.0,16.0,31,0.00,,,-99.99,,2013-01-26 22:22:00,
2013-01-26 17:32:00,12.0,-11.0,-100.00,NNW,340,9.0,14.0,33,0.00,,,-99.99,,2013-01-26 22:32:00,
2013-01-26 17:42:00,12.0,-11.0,-100.00,NNW,345,9.0,16.0,33,0.00,,,-99.99,,2013-01-26 22:42:00,
2013-01-26 17:52:00,12.0,-11.0,-100.00,NNW,345,11.0,19.0,34,0.00,,,-99.99,,2013-01-26 22:52:00,
2013-01-26 18:02:00,11.0,-11.0,-100.00,NNW,340,11.0,19.0,34,0.00,,,-99.99,,2013-01-26 23:02:00,
2013-01-26 18:12:00,11.0,-11.0,-100.00,NW,315,7.0,13.0,35,0.00,,,-99.99,,2013-01-26 23:12:00,
2013-01-26 18:22:00,10.0,-12.0,-100.00,NW,320,6.0,16.0,35,0.00,,,-99.99,,2013-01-26 23:22:00,
2013-01-26 18:32:00,10.0,-12.0,-100.00,NNW,340,7.0,19.0,34,0.00,,,-99.99,,2013-01-26 23:32:00,
2013-01-26 18:42:00,10.0,-13.0,-100.00,NNW,340,7.0,19.0,34,0.00,,,-99.99,,2013-01-26 23:42:00,
2013-01-26 18:52:00,9.0,-13.0,-100.00,NNW,340,8.0,16.0,34,0.00,,,-99.99,,2013-01-26 23:52:00,
2013-01-26 19:02:00,9.0,-12.0,-100.00,NNW,340,8.0,14.0,36,0.00,,,-99.99,,2013-01-27 00:02:00,
2013-01-26 19:11:00,9.0,-11.0,-100.00,North,-999,-999.0,-999.0,38,0.00,,,-99.99,,2013-01-27 00:11:00,
2013-01-26 19:21:00,9.0,-11.0,-100.00,NNW,335,5.0,9.0,39,0.00,,,-99.99,,2013-01-27 00:21:00,
2013-01-26 19:32:00,9.0,-10.0,-100.00,NW,325,6.0,10.0,42,0.00,,,-99.99,,2013-01-27 00:32:00,
2013-01-26 19:42:00,8.0,-9.0,-100.00,NNW,340,6.0,12.0,44,0.00,,,-99.99,,2013-01-27 00:42:00,
2013-01-26 19:51:00,8.0,-8.0,-100.00,NNW,335,4.0,12.0,46,0.00,,,-99.99,,2013-01-27 00:51:00,
2013-01-26 20:01:00,8.0,-7.0,-100.00,NNW,345,3.0,14.0,48,0.00,,,-99.99,,2013-01-27 01:01:00,
2013-01-26 20:11:00,8.0,-7.0,-100.00,NNW,345,5.0,10.0,48,0.00,,,-99.99,,2013-01-27 01:11:00,
2013-01-26 20:22:00,8.0,-7.0,-100.00,NNW,335,7.0,14.0,50,0.00,,,-99.99,,2013-01-27 01:22:00,
2013-01-26 20:32:00,8.0,-6.0,-100.00,NNW,345,5.0,11.0,52,0.00,,,-99.99,,2013-01-27 01:32:00,
2013-01-26 20:42:00,8.0,-5.0,-100.00,NNW,340,7.0,14.0,53,0.00,,,-99.99,,2013-01-27 01:42:00,
2013-01-26 20:52:00,8.0,-5.0,-100.00,NNW,345,8.0,16.0,54,0.00,,,-99.99,,2013-01-27 01:52:00,
2013-01-26 21:01:00,8.0,-5.0,-100.00,NNW,340,6.0,12.0,55,0.00,,,-99.99,,2013-01-27 02:01:00,
2013-01-26 21:12:00,8.0,-4.0,-100.00,NNW,345,4.0,14.0,56,0.00,,,-99.99,,2013-01-27 02:12:00,
2013-01-26 21:22:00,8.0,-4.0,-100.00,NW,320,4.0,12.0,57,0.00,,,-99.99,,2013-01-27 02:22:00,
2013-01-26 21:32:00,8.0,-4.0,-100.00,NNW,340,6.0,12.0,58,0.00,,,-99.99,,2013-01-27 02:32:00,
2013-01-26 21:42:00,8.0,-3.0,-100.00,NNW,345,7.0,12.0,58,0.00,,,-99.99,,2013-01-27 02:42:00,
2013-01-26 21:52:00,8.0,-3.0,-100.00,NNW,340,6.0,14.0,59,0.00,,,-99.99,,2013-01-27 02:52:00,
2013-01-26 22:02:00,8.0,-3.0,-100.00,NNW,335,5.0,14.0,59,0.00,,,-99.99,,2013-01-27 03:02:00,
2013-01-26 22:11:00,7.0,-3.0,-100.00,North,350,1.0,6.0,61,0.00,,,-99.99,,2013-01-27 03:11:00,
2013-01-26 22:21:00,7.0,-3.0,-100.00,NW,305,2.0,4.0,63,0.00,,,-99.99,,2013-01-27 03:21:00,
2013-01-26 22:32:00,7.0,-3.0,-100.00,North,0,2.0,6.0,62,0.00,,,-99.99,,2013-01-27 03:32:00,
2013-01-26 22:42:00,7.0,-3.0,-100.00,NNW,340,2.0,6.0,62,0.00,,,-99.99,,2013-01-27 03:42:00,
2013-01-26 22:51:00,7.0,-3.0,-100.00,NW,315,2.0,7.0,62,0.00,,,-99.99,,2013-01-27 03:51:00,
2013-01-26 23:02:00,7.0,-3.0,-100.00,NNW,340,2.0,7.0,63,0.00,,,-99.99,,2013-01-27 04:02:00,
2013-01-26 23:11:00,7.0,-2.0,-100.00,NNW,335,4.0,9.0,64,0.00,,,-99.99,,2013-01-27 04:11:00,
2013-01-26 23:21:00,7.0,-2.0,-100.00,NNW,340,5.0,10.0,65,0.00,,,-99.99,,2013-01-27 04:21:00,
2013-01-26 23:32:00,8.0,-2.0,-100.00,NW,320,6.0,15.0,62,0.00,,,-99.99,,2013-01-27 04:32:00,
2013-01-26 23:41:00,8.0,-2.0,-100.00,NNW,345,7.0,14.0,61,0.00,,,-99.99,,2013-01-27 04:41:00,
2013-01-26 23:51:00,8.0,-2.0,-100.00,NNW,335,9.0,18.0,60,0.00,,,-99.99,,2013-01-27 04:51:00,